createdAt,value
2017-11-16T00:02:21.294Z,8.02
2017-11-16T00:04:47.551Z,10.02
2017-11-16T00:07:14.564Z,17.15
2017-11-16T00:09:40.916Z,12.25
2017-11-16T00:12:07.183Z,11.63
2017-11-16T00:14:33.483Z,8.13
2017-11-16T00:16:59.760Z,9.68
2017-11-16T00:19:26.019Z,11.27
2017-11-16T00:21:53.048Z,10.90
2017-11-16T00:24:19.331Z,10.85
2017-11-16T00:26:45.583Z,12.07
2017-11-16T00:29:11.892Z,10.90
2017-11-16T00:31:38.155Z,10.68
2017-11-16T00:34:04.435Z,11.40
2017-11-16T00:36:30.711Z,11.25
2017-11-16T00:38:56.980Z,10.80
2017-11-16T00:41:23.260Z,10.13
2017-11-16T00:43:49.539Z,10.55
2017-11-16T00:46:15.812Z,12.63
2017-11-16T00:48:42.108Z,12.80
2017-11-16T00:51:08.391Z,11.32
2017-11-16T00:53:34.663Z,12.77
2017-11-16T00:56:00.934Z,11.98
2017-11-16T00:58:27.227Z,14.15
2017-11-16T01:00:53.496Z,10.98
2017-11-16T01:03:19.796Z,12.48
2017-11-16T01:05:46.068Z,11.10
2017-11-16T01:08:12.336Z,19.45
2017-11-16T01:10:39.379Z,20.95
2017-11-16T01:13:05.644Z,17.67
2017-11-16T01:15:32.696Z,14.32
2017-11-16T01:17:58.956Z,10.70
2017-11-16T01:20:25.954Z,15.43
2017-11-16T01:22:52.247Z,16.48
2017-11-16T01:25:18.512Z,17.30
2017-11-16T01:27:44.807Z,16.40
2017-11-16T01:30:11.955Z,23.15
2017-11-16T01:32:38.220Z,16.20
2017-11-16T01:35:04.520Z,12.48
2017-11-16T01:37:30.821Z,15.20
2017-11-16T01:39:57.147Z,17.27
2017-11-16T01:42:23.427Z,20.95
2017-11-16T01:44:49.747Z,19.37
2017-11-16T01:47:17.075Z,19.35
2017-11-16T01:49:43.327Z,20.00
2017-11-16T01:52:09.636Z,14.70
2017-11-16T01:54:35.924Z,16.77
2017-11-16T01:57:02.211Z,18.35
2017-11-16T01:59:28.605Z,17.42
2017-11-16T02:01:54.911Z,25.15
2017-11-16T02:04:21.239Z,19.25
2017-11-16T02:06:47.564Z,18.67
2017-11-16T02:09:13.875Z,22.90
2017-11-16T02:11:40.172Z,17.25
2017-11-16T02:14:06.495Z,18.75
2017-11-16T02:16:32.759Z,19.80
2017-11-16T02:18:59.047Z,17.50
2017-11-16T02:21:26.128Z,23.58
2017-11-16T02:23:53.180Z,22.80
2017-11-16T02:26:20.252Z,19.20
2017-11-16T02:28:46.575Z,19.27
2017-11-16T02:31:13.599Z,18.52
2017-11-16T02:33:39.924Z,23.20
2017-11-16T02:36:06.266Z,17.12
2017-11-16T02:38:32.564Z,18.65
2017-11-16T02:40:59.643Z,20.30
2017-11-16T02:43:25.967Z,18.48
2017-11-16T02:45:52.273Z,20.90
2017-11-16T02:48:18.595Z,18.55
2017-11-16T02:50:44.920Z,21.23
2017-11-16T02:53:11.243Z,20.67
2017-11-16T02:55:37.531Z,16.83
2017-11-16T02:58:03.823Z,17.20
2017-11-16T03:00:30.182Z,19.77
2017-11-16T03:02:56.458Z,15.25
2017-11-16T03:05:22.798Z,20.00
2017-11-16T03:07:49.068Z,14.38
2017-11-16T03:10:15.387Z,18.05
2017-11-16T03:12:41.739Z,18.65
2017-11-16T03:15:08.036Z,14.85
2017-11-16T03:17:34.334Z,17.67
2017-11-16T03:20:01.396Z,13.95
2017-11-16T03:22:28.449Z,15.15
2017-11-16T03:24:54.760Z,17.17
2017-11-16T03:27:21.111Z,19.30
2017-11-16T03:29:47.407Z,17.27
2017-11-16T03:32:14.464Z,14.75
2017-11-16T03:34:40.752Z,19.30
2017-11-16T03:37:07.056Z,23.08
2017-11-16T03:39:33.359Z,16.55
2017-11-16T03:42:00.432Z,19.75
2017-11-16T03:44:26.727Z,19.95
2017-11-16T03:46:52.988Z,18.67
2017-11-16T03:49:19.316Z,18.37
2017-11-16T03:51:45.620Z,27.17
2017-11-16T03:54:11.912Z,19.87
2017-11-16T03:56:38.247Z,17.73
2017-11-16T03:59:04.504Z,23.20
2017-11-16T04:01:30.784Z,18.95
2017-11-16T04:03:57.075Z,19.27
2017-11-16T04:06:23.355Z,23.40
2017-11-16T04:08:49.600Z,19.62
2017-11-16T04:11:15.918Z,23.33
2017-11-16T04:13:42.212Z,17.95
2017-11-16T04:16:08.503Z,22.23
2017-11-16T04:18:35.543Z,25.15
2017-11-16T04:21:01.849Z,20.58
2017-11-16T04:23:28.874Z,23.73
2017-11-16T04:25:55.192Z,24.08
2017-11-16T04:28:21.491Z,20.83
2017-11-16T04:30:47.816Z,22.73
2017-11-16T04:33:14.139Z,25.98
2017-11-16T04:35:41.176Z,24.92
2017-11-16T04:38:07.469Z,24.60
2017-11-16T04:40:33.748Z,22.87
2017-11-16T04:43:00.035Z,18.70
2017-11-16T04:45:26.299Z,21.12
2017-11-16T04:47:53.339Z,23.23
2017-11-16T04:50:19.628Z,19.75
2017-11-16T04:52:45.899Z,18.05
2017-11-16T04:55:12.195Z,24.20
2017-11-16T04:57:38.480Z,23.70
2017-11-16T05:00:04.764Z,20.20
2017-11-16T05:02:31.084Z,21.95
2017-11-16T05:04:57.375Z,18.55
2017-11-16T05:07:23.663Z,20.90
2017-11-16T05:09:49.948Z,19.65
2017-11-16T05:12:16.236Z,18.35
2017-11-16T05:14:43.239Z,17.55
2017-11-16T05:17:09.527Z,17.90
2017-11-16T05:19:35.860Z,17.50
2017-11-16T05:22:02.167Z,14.95
2017-11-16T05:24:28.491Z,17.00
2017-11-16T05:26:54.800Z,17.62
2017-11-16T05:29:21.108Z,14.63
2017-11-16T05:31:48.143Z,19.60
2017-11-16T05:34:14.434Z,14.60
2017-11-16T05:36:40.716Z,20.90
2017-11-16T05:39:07.032Z,20.23
2017-11-16T05:41:34.096Z,16.70
2017-11-16T05:44:00.400Z,17.10
2017-11-16T05:46:26.711Z,17.98
2017-11-16T05:48:53.053Z,17.70
2017-11-16T05:51:19.320Z,17.05
2017-11-16T05:53:46.392Z,16.87
2017-11-16T05:56:12.748Z,18.55
2017-11-16T05:58:39.048Z,13.18
2017-11-16T06:01:05.411Z,14.60
2017-11-16T06:03:31.684Z,15.70
2017-11-16T06:05:57.967Z,15.15
2017-11-16T06:08:24.996Z,16.20
2017-11-16T06:10:51.284Z,14.93
2017-11-16T06:13:17.556Z,15.77
2017-11-16T06:15:43.844Z,16.40
2017-11-16T06:18:10.122Z,19.83
2017-11-16T06:20:36.397Z,15.93
2017-11-16T07:02:16.995Z,18.65
2017-11-16T07:04:43.279Z,17.65
2017-11-16T07:07:10.292Z,14.65
2017-11-16T07:09:36.571Z,19.02
2017-11-16T07:12:02.855Z,18.80
2017-11-16T07:14:29.117Z,18.12
2017-11-16T07:16:55.403Z,20.12
2017-11-16T07:19:21.691Z,18.50
2017-11-16T07:21:47.985Z,24.85
2017-11-16T07:24:15.061Z,18.70
2017-11-16T07:26:41.343Z,20.70
2017-11-16T07:29:07.597Z,20.90
2017-11-16T07:31:34.898Z,23.38
2017-11-16T07:34:01.172Z,23.20
2017-11-16T07:36:27.460Z,17.75
2017-11-16T07:38:53.754Z,19.58
2017-11-16T07:41:20.064Z,20.90
2017-11-16T07:43:46.360Z,20.67
2017-11-16T07:46:12.688Z,18.10
2017-11-16T07:48:38.999Z,21.12
2017-11-16T07:51:05.478Z,15.95
2017-11-16T07:53:31.796Z,17.77
2017-11-16T07:55:58.094Z,21.65
2017-11-16T07:58:24.401Z,15.95
2017-11-16T08:00:50.700Z,20.17
2017-11-16T08:03:17.028Z,15.38
2017-11-16T08:05:44.044Z,18.87
2017-11-16T08:08:10.319Z,18.30
2017-11-16T08:10:37.371Z,15.88
2017-11-16T08:13:03.633Z,17.70
2017-11-16T08:15:30.651Z,15.30
2017-11-16T08:17:56.923Z,18.25
2017-11-16T08:20:23.247Z,17.58
2017-11-16T08:22:49.512Z,20.40
2017-11-16T08:25:15.811Z,19.05
2017-11-16T08:27:42.811Z,16.52
2017-11-16T08:30:09.836Z,18.17
2017-11-16T08:32:36.120Z,27.50
2017-11-16T08:35:03.168Z,23.17
2017-11-16T08:37:30.183Z,25.88
2017-11-16T08:39:56.484Z,26.98
2017-11-16T08:42:22.815Z,19.12
2017-11-16T08:44:49.875Z,17.50
2017-11-16T08:47:16.194Z,17.12
2017-11-16T08:49:42.525Z,21.35
2017-11-16T08:52:08.849Z,23.05
2017-11-16T08:54:35.148Z,25.75
2017-11-16T08:57:01.471Z,18.05
2017-11-16T08:59:27.798Z,24.42
2017-11-16T09:01:54.124Z,21.45
2017-11-16T09:04:20.448Z,21.12
2017-11-16T09:06:46.769Z,23.75
2017-11-16T09:09:13.088Z,25.88
2017-11-16T09:11:39.387Z,25.55
2017-11-16T09:14:05.688Z,29.12
2017-11-16T09:16:32.012Z,30.40
2017-11-16T09:18:59.066Z,27.45
2017-11-16T09:21:25.429Z,33.15
2017-11-16T09:23:52.434Z,26.90
2017-11-16T09:26:18.769Z,30.33
2017-11-16T09:28:45.104Z,33.97
2017-11-16T09:31:12.180Z,30.83
2017-11-16T09:33:38.480Z,27.98
2017-11-16T09:36:05.528Z,24.98
2017-11-16T09:38:31.813Z,24.77
2017-11-16T09:40:58.111Z,29.77
2017-11-16T09:43:24.439Z,37.83
2017-11-16T09:45:50.735Z,31.77
2017-11-16T09:48:18.059Z,34.30
2017-11-16T09:50:44.378Z,39.55
2017-11-16T09:53:10.688Z,30.65
2017-11-16T09:55:36.984Z,30.98
2017-11-16T09:58:03.302Z,32.53
2017-11-16T10:00:29.555Z,31.05
2017-11-16T10:02:55.805Z,33.85
2017-11-16T10:05:22.100Z,28.48
2017-11-16T10:07:48.370Z,37.47
2017-11-16T10:10:14.635Z,32.10
2017-11-16T10:12:40.944Z,26.75
2017-11-16T10:15:07.215Z,37.63
2017-11-16T10:17:34.226Z,35.35
2017-11-16T10:20:00.508Z,26.75
2017-11-16T10:22:27.493Z,27.45
2017-11-16T10:24:53.773Z,29.12
2017-11-16T10:27:20.100Z,26.05
2017-11-16T10:29:46.348Z,29.23
2017-11-16T10:32:12.624Z,36.40
2017-11-16T10:34:39.652Z,31.33
2017-11-16T10:37:05.923Z,26.90
2017-11-16T10:39:32.936Z,31.77
2017-11-16T10:41:59.296Z,31.30
2017-11-16T10:44:25.637Z,31.62
2017-11-16T10:46:51.937Z,27.52
2017-11-16T10:49:18.238Z,29.90
2017-11-16T10:51:44.572Z,38.63
2017-11-16T10:54:10.836Z,34.35
2017-11-16T10:56:37.117Z,27.13
2017-11-16T10:59:03.424Z,33.13
2017-11-16T11:01:30.427Z,30.67
2017-11-16T11:03:56.722Z,30.67
2017-11-16T11:06:22.992Z,26.37
2017-11-16T11:08:49.256Z,32.05
2017-11-16T11:11:15.537Z,26.95
2017-11-16T11:13:41.828Z,29.55
2017-11-16T11:16:08.114Z,23.30
2017-11-16T11:18:35.146Z,25.30
2017-11-16T11:21:01.429Z,28.77
2017-11-16T11:23:28.439Z,31.12
2017-11-16T11:25:54.712Z,30.95
2017-11-16T11:28:21.008Z,34.83
2017-11-16T11:30:47.267Z,43.05
2017-11-16T11:33:13.570Z,36.42
2017-11-16T11:35:39.868Z,32.30
2017-11-16T11:38:06.144Z,31.87
2017-11-16T11:40:32.464Z,23.80
2017-11-16T11:42:58.772Z,26.80
2017-11-16T11:45:25.044Z,20.60
2017-11-16T11:47:52.112Z,26.58
2017-11-16T11:50:18.380Z,28.45
2017-11-16T11:52:45.419Z,26.33
2017-11-16T11:55:11.717Z,27.73
2017-11-16T11:57:37.988Z,26.60
2017-11-16T12:00:04.307Z,23.15
2017-11-16T12:02:30.608Z,25.98
2017-11-16T12:04:56.892Z,25.70
2017-11-16T12:07:23.179Z,30.70
2017-11-16T12:09:49.492Z,31.50
2017-11-16T12:12:15.775Z,26.25
2017-11-16T12:14:42.024Z,31.20
2017-11-16T12:17:08.324Z,31.65
2017-11-16T12:19:35.619Z,30.08
2017-11-16T12:22:01.891Z,26.30
2017-11-16T12:24:28.198Z,25.15
2017-11-16T12:26:54.469Z,27.50
2017-11-16T12:29:20.787Z,21.12
2017-11-16T12:31:47.116Z,22.05
2017-11-16T12:34:14.161Z,24.15
2017-11-16T12:36:40.465Z,30.20
2017-11-16T12:39:06.780Z,20.27
2017-11-16T12:41:33.085Z,24.75
2017-11-16T12:43:59.389Z,26.85
2017-11-16T12:46:26.756Z,27.30
2017-11-16T12:48:53.039Z,22.58
2017-11-16T12:51:20.296Z,24.85
2017-11-16T12:53:47.360Z,23.58
2017-11-16T12:56:13.671Z,23.42
2017-11-16T12:58:39.975Z,21.08
2017-11-16T13:01:06.276Z,23.05
2017-11-16T13:03:33.343Z,24.65
2017-11-16T13:06:00.652Z,22.95
2017-11-16T13:08:26.920Z,21.12
2017-11-16T13:10:54.235Z,28.40
2017-11-16T13:13:20.507Z,22.73
2017-11-16T13:15:46.799Z,17.27
2017-11-16T13:18:13.109Z,26.42
2017-11-16T13:20:39.405Z,28.58
2017-11-16T13:23:05.691Z,23.27
2017-11-16T13:25:31.968Z,29.00
2017-11-16T13:27:58.983Z,21.58
2017-11-16T13:30:25.240Z,28.90
2017-11-16T13:32:51.512Z,24.58
2017-11-16T13:35:18.523Z,24.12
2017-11-16T13:37:44.786Z,22.25
2017-11-16T13:40:11.818Z,19.40
2017-11-16T13:42:38.100Z,22.80
2017-11-16T13:45:04.408Z,25.65
2017-11-16T13:47:30.700Z,27.40
2017-11-16T13:49:57.704Z,20.40
2017-11-16T13:52:24.740Z,22.25
2017-11-16T13:54:51.004Z,22.48
2017-11-16T13:57:17.312Z,24.02
2017-11-16T13:59:43.595Z,21.50
2017-11-16T14:02:09.880Z,22.08
2017-11-16T14:04:36.160Z,24.30
2017-11-16T14:07:02.440Z,22.17
2017-11-16T14:09:28.967Z,19.62
2017-11-16T14:11:55.260Z,23.60
2017-11-16T14:14:21.539Z,21.48
2017-11-16T14:16:47.789Z,34.28
2017-11-16T14:19:14.068Z,20.45
2017-11-16T14:21:41.088Z,21.27
2017-11-16T14:24:07.379Z,20.05
2017-11-16T14:26:33.744Z,23.10
2017-11-16T14:29:00.012Z,26.92
2017-11-16T14:31:26.272Z,30.85
2017-11-16T14:33:53.312Z,29.37
2017-11-16T14:36:19.573Z,25.67
2017-11-16T14:38:45.872Z,24.50
2017-11-16T14:41:12.173Z,28.70
2017-11-16T14:43:39.181Z,23.75
2017-11-16T14:46:05.532Z,24.67
2017-11-16T14:48:31.797Z,26.50
2017-11-16T14:50:58.064Z,26.62
2017-11-16T14:53:24.375Z,26.17
2017-11-16T14:55:50.636Z,23.33
2017-11-16T14:58:17.896Z,22.83
2017-11-16T15:00:44.945Z,26.05
2017-11-16T15:03:11.212Z,29.70
2017-11-16T15:05:38.220Z,32.00
2017-11-16T15:08:04.555Z,33.80
2017-11-16T15:10:30.821Z,30.77
2017-11-16T15:12:57.091Z,40.97
2017-11-16T15:15:23.379Z,32.47
2017-11-16T15:17:49.632Z,31.87
2017-11-16T15:20:15.920Z,46.47
2017-11-16T15:22:42.212Z,38.42
2017-11-16T15:25:08.508Z,31.73
2017-11-16T15:27:35.500Z,41.10
2017-11-16T15:30:01.791Z,35.75
2017-11-16T15:32:28.852Z,35.53
2017-11-16T15:34:55.852Z,45.03
2017-11-16T15:37:22.152Z,48.13
2017-11-16T15:39:49.193Z,40.15
2017-11-16T15:42:15.469Z,37.22
2017-11-16T15:44:41.756Z,31.65
2017-11-16T15:47:08.085Z,37.55
2017-11-16T15:49:34.377Z,27.15
2017-11-16T15:52:00.718Z,36.47
2017-11-16T15:54:28.193Z,33.83
2017-11-16T15:56:54.478Z,38.10
2017-11-16T15:59:20.809Z,32.42
2017-11-16T16:01:47.048Z,30.52
2017-11-16T16:04:13.437Z,31.45
2017-11-16T16:06:40.540Z,36.38
2017-11-16T16:09:06.828Z,38.15
2017-11-16T16:11:33.159Z,48.35
2017-11-16T16:14:00.211Z,42.72
2017-11-16T16:16:26.546Z,38.63
2017-11-16T16:18:52.807Z,47.28
2017-11-16T16:21:19.435Z,35.80
2017-11-16T16:23:45.924Z,38.63
2017-11-16T16:26:12.521Z,37.70
2017-11-16T16:28:39.474Z,41.40
2017-11-16T16:31:07.005Z,47.55
2017-11-16T16:33:35.649Z,37.70
2017-11-16T16:36:02.904Z,50.92
2017-11-16T16:38:30.682Z,45.20
2017-11-16T16:40:57.833Z,40.42
2017-11-16T16:43:24.617Z,41.37
2017-11-16T16:45:51.833Z,42.65
2017-11-16T16:48:18.786Z,40.12
2017-11-16T16:50:46.170Z,43.00
2017-11-16T16:53:13.716Z,34.40
2017-11-16T16:55:41.215Z,36.40
2017-11-16T16:58:08.815Z,57.72
2017-11-16T17:00:36.104Z,51.97
2017-11-16T17:03:03.925Z,40.08
2017-11-16T17:05:31.789Z,63.58
2017-11-16T17:07:59.726Z,60.58
2017-11-16T17:10:27.708Z,53.10
2017-11-16T17:12:55.606Z,99.10
2017-11-16T17:15:23.541Z,48.65
2017-11-16T17:17:52.219Z,59.80
2017-11-16T17:20:20.113Z,60.58
2017-11-16T17:22:48.114Z,62.35
2017-11-16T17:25:16.172Z,65.53
2017-11-16T17:27:44.074Z,67.55
2017-11-16T17:30:12.219Z,61.65
2017-11-16T17:32:40.264Z,70.12
2017-11-16T17:35:08.194Z,60.30
2017-11-16T17:37:36.980Z,61.13
2017-11-16T17:40:05.018Z,52.90
2017-11-16T17:42:33.002Z,58.00
2017-11-16T17:45:01.227Z,68.78
2017-11-16T17:47:29.303Z,52.33
2017-11-16T17:49:58.022Z,61.83
2017-11-16T17:52:26.794Z,60.25
2017-11-16T17:54:55.957Z,54.25
2017-11-16T17:57:24.727Z,63.87
2017-11-16T17:59:52.904Z,52.67
2017-11-16T18:02:20.894Z,62.83
2017-11-16T18:04:49.059Z,61.70
2017-11-16T18:07:17.042Z,59.10
2017-11-16T18:09:45.120Z,50.10
2017-11-16T18:12:13.307Z,47.55
2017-11-16T18:14:41.283Z,57.28
2017-11-16T18:17:09.550Z,41.88
2017-11-16T18:19:37.641Z,49.75
2017-11-16T18:22:07.789Z,54.90
2017-11-16T18:24:35.983Z,50.58
2017-11-16T18:27:04.128Z,53.53
2017-11-16T18:29:32.491Z,43.00
2017-11-16T18:32:00.468Z,44.83
2017-11-16T18:34:29.453Z,50.40
2017-11-16T18:36:57.433Z,49.10
2017-11-16T18:39:26.455Z,56.88
2017-11-16T18:41:55.207Z,45.78
2017-11-16T18:44:23.862Z,41.30
2017-11-16T18:46:51.959Z,36.33
2017-11-16T18:49:19.943Z,51.08
2017-11-16T18:51:48.032Z,49.97
2017-11-16T18:54:16.080Z,41.92
2017-11-16T18:56:44.203Z,49.22
2017-11-16T18:59:12.402Z,38.42
2017-11-16T19:01:41.113Z,46.92
2017-11-16T19:04:09.183Z,51.28
2017-11-16T19:06:37.292Z,46.85
2017-11-16T19:09:06.180Z,44.00
2017-11-16T19:11:34.294Z,45.80
2017-11-16T19:14:04.030Z,40.15
2017-11-16T19:16:32.121Z,57.22
2017-11-16T19:19:00.930Z,49.72
2017-11-16T19:21:29.069Z,49.78
2017-11-16T19:23:57.332Z,42.53
2017-11-16T19:26:25.540Z,43.42
2017-11-16T19:28:54.638Z,37.78
2017-11-16T19:31:23.761Z,38.42
2017-11-16T19:33:51.996Z,38.00
2017-11-16T19:36:20.756Z,36.03
2017-11-16T19:38:49.045Z,47.38
2017-11-16T19:41:17.000Z,43.60
2017-11-16T19:43:45.060Z,35.30
2017-11-16T19:46:13.553Z,44.75
2017-11-16T19:48:42.420Z,42.42
2017-11-16T19:51:10.474Z,48.08
2017-11-16T19:53:38.471Z,43.08
2017-11-16T19:56:07.671Z,55.38
2017-11-16T19:58:36.734Z,46.35
2017-11-16T20:01:04.822Z,70.05
2017-11-16T20:03:32.892Z,46.05
2017-11-16T20:06:01.077Z,49.15
2017-11-16T20:08:29.963Z,50.53
2017-11-16T20:10:58.003Z,46.83
2017-11-16T20:13:27.090Z,39.63
2017-11-16T20:15:55.195Z,55.65
2017-11-16T20:18:23.443Z,61.28
2017-11-16T20:20:51.594Z,43.35
2017-11-16T20:23:27.782Z,48.75
2017-11-16T20:25:55.890Z,51.10
2017-11-16T20:28:25.220Z,38.78
2017-11-16T20:30:53.540Z,41.90
2017-11-16T20:33:22.487Z,51.97
2017-11-16T20:35:50.604Z,51.05
2017-11-16T20:41:28.493Z,60.28
2017-11-16T20:43:59.662Z,58.40
2017-11-16T20:46:29.809Z,54.10
2017-11-16T20:49:05.581Z,61.90
2017-11-16T20:51:49.432Z,53.87
2017-11-16T20:54:19.432Z,62.92
2017-11-16T20:56:47.407Z,55.90
2017-11-16T20:59:16.477Z,51.25
2017-11-16T21:01:44.622Z,50.78
2017-11-16T21:04:12.686Z,60.72
2017-11-16T21:06:41.564Z,57.13
2017-11-16T21:09:10.263Z,47.88
2017-11-16T21:11:38.262Z,48.75
2017-11-16T21:14:06.385Z,51.78
2017-11-16T21:16:34.391Z,40.65
2017-11-16T21:19:02.505Z,49.38
2017-11-16T21:21:30.542Z,54.53
2017-11-16T21:23:59.528Z,52.72
2017-11-16T21:26:28.178Z,56.58
2017-11-16T21:28:56.072Z,48.17
2017-11-16T21:31:24.162Z,51.72
2017-11-16T21:33:52.072Z,49.83
2017-11-16T21:36:20.066Z,49.28
2017-11-16T21:38:48.028Z,53.63
2017-11-16T21:41:15.913Z,53.70
2017-11-16T21:43:44.031Z,53.65
2017-11-16T21:46:12.108Z,49.50
2017-11-16T21:48:40.000Z,47.25
2017-11-16T21:51:07.863Z,56.42
2017-11-16T21:53:35.941Z,49.17
2017-11-16T21:56:03.834Z,51.30
2017-11-16T21:58:34.032Z,42.22
2017-11-16T22:01:02.627Z,55.20
2017-11-16T22:03:30.674Z,52.58
2017-11-16T22:06:00.397Z,48.50
2017-11-16T22:08:29.032Z,56.92
2017-11-16T22:10:56.891Z,61.88
2017-11-16T22:13:25.614Z,56.08
2017-11-16T22:15:54.411Z,71.37
2017-11-16T22:18:23.923Z,43.80
2017-11-16T22:20:52.878Z,62.00
2017-11-16T22:23:22.159Z,54.90
2017-11-16T22:25:51.035Z,56.25
2017-11-16T22:28:19.686Z,51.20
2017-11-16T22:30:47.754Z,54.22
2017-11-16T22:33:15.768Z,48.55
2017-11-16T22:35:44.814Z,61.08
2017-11-16T22:38:14.219Z,63.58
2017-11-16T22:40:43.237Z,65.03
2017-11-16T22:43:12.774Z,51.30
2017-11-16T22:45:41.881Z,53.13
2017-11-16T22:48:10.125Z,58.80
2017-11-16T22:50:37.919Z,58.47
2017-11-16T22:53:04.525Z,47.92
2017-11-16T22:55:31.012Z,54.85
2017-11-16T22:57:57.515Z,51.15
2017-11-16T23:00:24.017Z,47.42
2017-11-16T23:02:51.250Z,55.47
2017-11-16T23:05:17.707Z,50.90
2017-11-16T23:07:44.132Z,54.95
2017-11-16T23:10:10.764Z,62.10
2017-11-16T23:12:37.237Z,63.20
2017-11-16T23:15:05.810Z,70.72
2017-11-16T23:17:32.269Z,55.10
2017-11-16T23:19:58.750Z,64.45
2017-11-16T23:22:25.170Z,56.63
2017-11-16T23:24:51.937Z,61.00
2017-11-16T23:27:18.494Z,50.80
2017-11-16T23:29:46.206Z,52.10
2017-11-16T23:32:13.156Z,55.67
2017-11-16T23:34:40.489Z,55.70
2017-11-16T23:37:06.958Z,66.65
2017-11-16T23:39:34.179Z,56.22
2017-11-16T23:42:00.640Z,61.90
2017-11-16T23:44:27.846Z,59.95
2017-11-16T23:46:54.301Z,63.22
2017-11-16T23:49:20.779Z,60.58
2017-11-16T23:51:47.213Z,59.17
2017-11-16T23:54:13.636Z,53.50
2017-11-16T23:56:40.136Z,51.70
2017-11-16T23:59:06.574Z,63.53
